createdAt,value
2022-08-07T00:01:44.272Z,22.44
2022-08-07T00:03:56.505Z,22.43
2022-08-07T00:06:33.201Z,22.43
2022-08-07T00:08:55.270Z,22.42
2022-08-07T00:11:30.051Z,22.40
2022-08-07T00:13:52.737Z,22.41
2022-08-07T00:16:28.043Z,22.44
2022-08-07T00:18:52.129Z,22.45
2022-08-07T00:21:56.288Z,22.47
2022-08-07T00:23:50.833Z,22.47
2022-08-07T00:26:31.394Z,22.45
2022-08-07T00:28:55.356Z,22.42
2022-08-07T00:31:17.903Z,22.40
2022-08-07T00:33:47.428Z,22.38
2022-08-07T00:36:16.929Z,22.35
2022-08-07T00:38:44.918Z,22.31
2022-08-07T00:41:14.679Z,22.29
2022-08-07T00:44:00.667Z,22.29
2022-08-07T00:46:13.310Z,22.25
2022-08-07T00:48:42.516Z,22.21
2022-08-07T00:51:11.366Z,22.18
2022-08-07T00:53:50.245Z,22.16
2022-08-07T00:56:14.051Z,22.14
2022-08-07T00:58:42.876Z,22.13
2022-08-07T01:01:12.378Z,22.09
2022-08-07T01:03:55.298Z,22.03
2022-08-07T01:06:12.287Z,22.00
2022-08-07T01:08:43.209Z,21.96
2022-08-07T01:12:10.299Z,21.93
2022-08-07T01:13:41.859Z,21.88
2022-08-07T01:16:11.770Z,21.84
2022-08-07T01:18:41.516Z,21.76
2022-08-07T01:21:22.703Z,21.71
2022-08-07T01:23:47.901Z,21.69
2022-08-07T01:26:20.278Z,21.67
2022-08-07T01:28:51.002Z,21.67
2022-08-07T01:31:24.222Z,21.68
2022-08-07T01:33:57.460Z,21.69
2022-08-07T01:36:33.249Z,21.71
2022-08-07T01:38:57.296Z,21.71
2022-08-07T01:41:27.043Z,21.73
2022-08-07T01:43:56.914Z,21.74
2022-08-07T01:46:26.557Z,21.76
2022-08-07T01:48:55.404Z,21.75
2022-08-07T01:52:01.600Z,21.78
2022-08-07T01:54:12.159Z,21.74
2022-08-07T01:56:53.032Z,21.72
2022-08-07T01:59:31.905Z,21.67
2022-08-07T02:02:11.871Z,21.64
2022-08-07T02:05:02.558Z,21.59
2022-08-07T02:07:50.411Z,21.60
2022-08-07T02:10:14.389Z,21.58
2022-08-07T02:12:50.098Z,21.58
2022-08-07T02:15:25.469Z,21.57
2022-08-07T02:18:03.572Z,21.57
2022-08-07T02:20:37.281Z,21.52
2022-08-07T02:23:12.544Z,21.46
2022-08-07T02:26:30.697Z,21.40
2022-08-07T02:28:27.086Z,21.35
2022-08-07T02:30:58.905Z,21.31
2022-08-07T02:33:32.808Z,21.26
2022-08-07T02:36:30.865Z,21.24
2022-08-07T02:38:50.877Z,21.21
2022-08-07T02:41:13.117Z,21.23
2022-08-07T02:43:43.675Z,21.23
2022-08-07T02:46:23.206Z,21.25
2022-08-07T02:48:55.056Z,21.27
2022-08-07T02:51:42.829Z,21.27
2022-08-07T02:53:57.912Z,21.30
2022-08-07T02:56:30.001Z,21.29
2022-08-07T02:59:04.619Z,21.30
2022-08-07T03:01:36.693Z,21.30
2022-08-07T03:04:12.842Z,21.27
2022-08-07T03:06:44.846Z,21.25
2022-08-07T03:09:13.332Z,21.23
2022-08-07T03:11:51.817Z,21.23
2022-08-07T03:14:12.531Z,21.22
2022-08-07T03:16:40.737Z,21.20
2022-08-07T03:19:10.903Z,21.14
2022-08-07T03:21:40.439Z,21.13
2022-08-07T03:24:17.897Z,21.10
2022-08-07T03:26:51.030Z,21.06
2022-08-07T03:29:14.741Z,21.02
2022-08-07T03:31:46.243Z,20.97
2022-08-07T03:34:18.696Z,20.93
2022-08-07T03:36:50.571Z,20.89
2022-08-07T03:39:56.550Z,20.86
2022-08-07T03:41:50.896Z,20.85
2022-08-07T03:44:21.738Z,20.83
2022-08-07T03:47:13.104Z,20.83
2022-08-07T03:49:20.200Z,20.80
2022-08-07T03:51:57.336Z,20.76
2022-08-07T03:54:35.128Z,20.76
2022-08-07T03:57:03.531Z,20.78
2022-08-07T03:59:27.157Z,20.82
2022-08-07T04:01:56.311Z,20.87
2022-08-07T04:04:26.749Z,20.91
2022-08-07T04:06:57.515Z,20.96
2022-08-07T04:09:38.079Z,21.02
2022-08-07T04:12:25.932Z,21.10
2022-08-07T04:14:37.248Z,21.15
2022-08-07T04:16:59.486Z,21.25
2022-08-07T04:19:34.088Z,21.30
2022-08-07T04:22:07.787Z,21.32
2022-08-07T04:24:34.052Z,21.33
2022-08-07T04:27:02.554Z,21.35
2022-08-07T04:29:48.668Z,21.35
2022-08-07T04:32:09.942Z,21.35
2022-08-07T04:34:34.153Z,21.35
2022-08-07T04:37:02.986Z,21.35
2022-08-07T04:39:35.888Z,21.38
2022-08-07T04:42:04.633Z,21.34
2022-08-07T04:44:35.588Z,21.31
2022-08-07T04:47:11.251Z,21.30
2022-08-07T04:49:58.032Z,21.28
2022-08-07T04:52:51.221Z,21.31
2022-08-07T04:58:12.436Z,21.31
2022-08-07T04:59:17.488Z,21.33
2022-08-07T05:01:40.971Z,21.36
2022-08-07T05:04:18.820Z,21.38
2022-08-07T05:07:19.678Z,21.43
2022-08-07T05:10:04.911Z,21.48
2022-08-07T05:12:52.806Z,21.57
2022-08-07T05:15:23.066Z,21.66
2022-08-07T05:17:54.616Z,21.78
2022-08-07T05:20:26.390Z,21.92
2022-08-07T05:22:59.868Z,22.05
2022-08-07T05:25:54.413Z,22.16
2022-08-07T05:28:03.336Z,22.25
2022-08-07T05:30:33.079Z,22.32
2022-08-07T05:33:05.223Z,22.41
2022-08-07T05:35:42.208Z,22.47
2022-08-07T05:38:09.036Z,22.52
2022-08-07T05:40:50.468Z,22.56
2022-08-07T05:43:10.579Z,22.59
2022-08-07T05:45:47.416Z,22.65
2022-08-07T05:48:10.871Z,22.69
2022-08-07T05:50:43.026Z,22.77
2022-08-07T05:54:08.609Z,22.82
2022-08-07T05:56:03.350Z,22.87
2022-08-07T05:58:16.930Z,22.91
2022-08-07T06:00:50.779Z,22.95
2022-08-07T06:03:21.272Z,22.99
2022-08-07T06:05:56.544Z,23.04
2022-08-07T06:08:30.937Z,23.08
2022-08-07T06:10:51.213Z,23.13
2022-08-07T06:13:20.902Z,23.22
2022-08-07T06:15:51.116Z,23.31
2022-08-07T06:18:21.751Z,23.40
2022-08-07T06:22:16.733Z,23.51
2022-08-07T06:23:24.941Z,23.62
2022-08-07T06:25:54.471Z,23.73
2022-08-07T06:28:27.333Z,23.87
2022-08-07T06:30:52.965Z,23.99
2022-08-07T06:33:22.918Z,24.10
2022-08-07T06:36:13.239Z,24.22
2022-08-07T06:38:20.904Z,24.33
2022-08-07T06:40:53.130Z,24.45
2022-08-07T06:43:24.483Z,24.58
2022-08-07T06:46:00.866Z,24.69
2022-08-07T06:48:27.359Z,24.84
2022-08-07T06:50:59.939Z,24.95
2022-08-07T06:54:11.643Z,25.08
2022-08-07T06:56:02.272Z,25.20
2022-08-07T06:58:34.936Z,25.30
2022-08-07T07:01:09.257Z,25.40
2022-08-07T07:03:49.278Z,25.52
2022-08-07T07:06:11.276Z,25.61
2022-08-07T07:08:39.877Z,25.72
2022-08-07T07:11:14.008Z,25.83
2022-08-07T07:13:58.091Z,25.94
2022-08-07T07:16:21.270Z,26.05
2022-08-07T07:19:04.077Z,26.19
2022-08-07T07:22:04.269Z,26.33
2022-08-07T07:24:12.563Z,26.47
2022-08-07T07:26:49.644Z,26.60
2022-08-07T07:29:38.978Z,26.70
2022-08-07T07:31:50.974Z,26.84
2022-08-07T07:34:23.125Z,26.99
2022-08-07T07:36:54.226Z,27.13
2022-08-07T07:39:25.691Z,27.28
2022-08-07T07:42:13.029Z,27.43
2022-08-07T07:44:28.379Z,27.58
2022-08-07T07:47:04.249Z,27.74
2022-08-07T07:50:33.756Z,27.89
2022-08-07T07:52:01.182Z,28.07
2022-08-07T07:54:32.081Z,28.25
2022-08-07T07:57:03.061Z,28.42
2022-08-07T07:59:52.686Z,28.58
2022-08-07T08:02:10.356Z,28.69
2022-08-07T08:04:37.300Z,28.77
2022-08-07T08:07:07.681Z,28.84
2022-08-07T08:09:52.017Z,28.93
2022-08-07T08:12:09.550Z,29.04
2022-08-07T08:14:39.282Z,29.08
2022-08-07T08:17:55.434Z,29.19
2022-08-07T08:20:18.508Z,29.24
2022-08-07T08:22:32.974Z,29.33
2022-08-07T08:25:41.933Z,29.42
2022-08-07T08:27:56.268Z,29.54
2022-08-07T08:30:24.439Z,29.65
2022-08-07T08:32:59.387Z,29.70
2022-08-07T08:35:42.821Z,29.67
2022-08-07T08:38:03.402Z,29.65
2022-08-07T08:40:38.984Z,29.71
2022-08-07T08:43:42.651Z,29.71
2022-08-07T08:46:14.759Z,29.71
2022-08-07T08:49:14.637Z,29.74
2022-08-07T08:52:14.067Z,29.88
2022-08-07T08:54:32.266Z,29.88
2022-08-07T08:57:08.392Z,29.93
2022-08-07T08:59:53.228Z,29.93
2022-08-07T09:02:41.772Z,30.13
2022-08-07T09:05:48.168Z,30.23
2022-08-07T09:08:43.880Z,30.23
2022-08-07T09:11:24.292Z,30.27
2022-08-07T09:14:13.289Z,30.39
2022-08-07T09:16:50.351Z,30.54
2022-08-07T09:19:53.320Z,30.81
2022-08-07T09:24:31.902Z,31.03
2022-08-07T09:25:26.038Z,31.05
2022-08-07T09:30:04.094Z,30.93
2022-08-07T09:31:02.920Z,30.84
2022-08-07T09:34:00.976Z,30.90
2022-08-07T09:36:52.665Z,31.03
2022-08-07T09:39:53.834Z,31.20
2022-08-07T09:42:31.583Z,31.22
2022-08-07T09:47:37.287Z,31.16
2022-08-07T09:48:14.461Z,31.15
2022-08-07T09:51:14.769Z,31.31
2022-08-07T09:53:48.927Z,31.60
2022-08-07T09:56:39.279Z,31.79
2022-08-07T10:00:00.279Z,31.83
2022-08-07T10:02:41.350Z,32.00
2022-08-07T10:05:29.700Z,32.20
2022-08-07T10:08:05.861Z,32.35
2022-08-07T10:11:16.963Z,32.53
2022-08-07T10:14:00.319Z,32.48
2022-08-07T10:16:56.196Z,32.29
2022-08-07T10:19:59.842Z,32.03
2022-08-07T10:22:50.954Z,31.80
2022-08-07T10:25:32.824Z,31.61
2022-08-07T10:28:24.555Z,31.41
2022-08-07T10:31:11.139Z,31.27
2022-08-07T10:34:15.567Z,31.18
2022-08-07T10:36:41.601Z,31.09
2022-08-07T10:39:41.528Z,31.00
2022-08-07T10:42:21.376Z,30.88
2022-08-07T10:45:44.376Z,30.78
2022-08-07T10:48:03.867Z,30.68
2022-08-07T10:50:50.167Z,30.52
2022-08-07T10:54:06.630Z,30.41
2022-08-07T10:57:00.292Z,30.34
2022-08-07T10:59:57.525Z,30.33
2022-08-07T11:02:38.049Z,30.43
2022-08-07T11:05:51.153Z,30.62
2022-08-07T11:08:45.565Z,30.80
2022-08-07T11:11:37.650Z,31.05
2022-08-07T11:14:45.254Z,31.08
2022-08-07T11:17:07.325Z,31.12
2022-08-07T11:19:51.226Z,31.11
2022-08-07T11:22:46.247Z,31.10
2022-08-07T11:25:26.777Z,31.13
2022-08-07T11:28:15.624Z,31.17
2022-08-07T11:30:55.966Z,31.11
2022-08-07T11:33:58.444Z,31.28
2022-08-07T11:36:38.925Z,31.61
2022-08-07T11:40:00.999Z,31.95
2022-08-07T11:42:49.197Z,32.28
2022-08-07T11:46:03.394Z,32.47
2022-08-07T11:49:10.279Z,32.48
2022-08-07T11:51:44.977Z,32.42
2022-08-07T11:54:46.447Z,32.31
2022-08-07T11:57:59.444Z,32.18
2022-08-07T12:00:21.196Z,31.98
2022-08-07T12:03:03.941Z,31.92
2022-08-07T12:05:51.563Z,31.95
2022-08-07T12:08:34.489Z,32.00
2022-08-07T12:11:21.201Z,32.05
2022-08-07T12:13:52.594Z,31.77
2022-08-07T12:16:30.230Z,31.55
2022-08-07T12:19:35.927Z,31.62
2022-08-07T12:22:38.654Z,31.75
2022-08-07T12:26:00.312Z,31.93
2022-08-07T12:28:09.688Z,32.12
2022-08-07T12:30:34.759Z,32.16
2022-08-07T12:33:23.335Z,32.20
2022-08-07T12:35:57.978Z,32.30
2022-08-07T12:38:38.448Z,32.45
2022-08-07T12:40:55.802Z,32.52
2022-08-07T12:44:02.416Z,32.63
2022-08-07T12:46:31.967Z,32.78
2022-08-07T12:49:09.754Z,32.82
2022-08-07T12:51:51.285Z,32.79
2022-08-07T12:54:38.376Z,32.82
2022-08-07T12:57:07.414Z,32.93
2022-08-07T12:59:53.905Z,33.11
2022-08-07T13:02:24.920Z,33.26
2022-08-07T13:06:01.970Z,33.37
2022-08-07T13:08:12.913Z,33.49
2022-08-07T13:10:44.027Z,33.61
2022-08-07T13:13:48.280Z,33.76
2022-08-07T13:16:32.442Z,33.92
2022-08-07T13:19:45.666Z,34.01
2022-08-07T13:22:33.448Z,34.03
2022-08-07T13:25:29.745Z,34.11
2022-08-07T13:28:10.883Z,34.21
2022-08-07T13:30:40.004Z,34.22
2022-08-07T13:34:34.325Z,34.30
2022-08-07T13:36:05.794Z,34.32
2022-08-07T13:39:11.299Z,34.14
2022-08-07T13:41:47.617Z,33.84
2022-08-07T13:44:27.124Z,33.45
2022-08-07T13:46:59.721Z,33.14
2022-08-07T13:50:35.582Z,32.89
2022-08-07T13:52:25.946Z,32.77
2022-08-07T13:54:42.986Z,32.77
2022-08-07T13:57:23.925Z,32.81
2022-08-07T13:59:50.186Z,32.84
2022-08-07T14:02:29.791Z,32.86
2022-08-07T14:05:11.818Z,32.87
2022-08-07T14:08:00.753Z,32.86
2022-08-07T14:10:24.380Z,32.89
2022-08-07T14:12:58.169Z,32.93
2022-08-07T14:15:50.432Z,32.99
2022-08-07T14:18:28.337Z,33.04
2022-08-07T14:21:08.344Z,33.10
2022-08-07T14:24:01.272Z,33.14
2022-08-07T14:26:08.993Z,33.17
2022-08-07T14:28:57.409Z,33.19
2022-08-07T14:31:13.784Z,33.24
2022-08-07T14:33:45.474Z,33.23
2022-08-07T14:36:14.904Z,33.25
2022-08-07T14:38:50.443Z,33.28
2022-08-07T14:41:34.088Z,33.30
2022-08-07T14:44:08.074Z,33.30
2022-08-07T14:46:32.068Z,33.35
2022-08-07T14:49:17.407Z,33.39
2022-08-07T14:52:05.032Z,33.44
2022-08-07T14:54:09.510Z,33.48
2022-08-07T14:56:33.643Z,33.55
2022-08-07T14:59:13.422Z,33.65
2022-08-07T15:01:50.953Z,33.74
2022-08-07T15:04:14.130Z,33.84
2022-08-07T15:06:49.145Z,33.96
2022-08-07T15:09:58.007Z,34.04
2022-08-07T15:20:31.283Z,33.84
2022-08-07T15:22:22.164Z,33.65
2022-08-07T15:27:23.621Z,32.40
2022-08-07T15:30:14.421Z,31.86
2022-08-07T15:32:40.040Z,31.33
2022-08-07T15:34:57.324Z,30.94
2022-08-07T15:42:52.083Z,29.58
2022-08-07T15:45:55.716Z,29.19
2022-08-07T15:48:07.589Z,28.96
2022-08-07T15:51:08.946Z,28.68
2022-08-07T15:53:18.385Z,28.55
2022-08-07T15:56:02.125Z,28.43
2022-08-07T15:58:44.741Z,28.34
2022-08-07T16:01:21.763Z,28.15
2022-08-07T16:03:55.775Z,27.98
2022-08-07T16:06:50.838Z,27.85
2022-08-07T16:09:23.214Z,27.79
2022-08-07T16:13:01.283Z,27.81
2022-08-07T16:15:57.418Z,27.80
2022-08-07T16:18:43.546Z,27.82
2022-08-07T16:22:03.348Z,27.84
2022-08-07T16:24:33.807Z,27.77
2022-08-07T16:27:18.778Z,27.72
2022-08-07T16:30:32.103Z,27.72
2022-08-07T16:34:03.451Z,27.80
2022-08-07T16:36:19.954Z,27.80
2022-08-07T16:39:00.911Z,27.80
2022-08-07T16:42:13.691Z,27.87
2022-08-07T16:46:40.582Z,27.94
2022-08-07T16:48:16.185Z,28.01
2022-08-07T16:51:20.459Z,28.04
2022-08-07T16:54:09.647Z,28.08
2022-08-07T16:56:53.223Z,28.07
2022-08-07T16:59:51.549Z,28.02
2022-08-07T17:02:53.938Z,27.98
2022-08-07T17:06:30.446Z,27.93
2022-08-07T17:08:02.112Z,27.89
2022-08-07T17:10:54.499Z,27.86
2022-08-07T17:14:18.991Z,27.82
2022-08-07T17:16:29.072Z,27.77
2022-08-07T17:19:05.923Z,27.71
2022-08-07T17:21:52.590Z,27.64
2022-08-07T17:24:43.820Z,27.58
2022-08-07T17:27:29.744Z,27.52
2022-08-07T17:30:16.192Z,27.47
2022-08-07T17:34:08.496Z,27.36
2022-08-07T17:36:12.100Z,27.29
2022-08-07T17:38:45.206Z,27.17
2022-08-07T17:42:04.347Z,27.09
2022-08-07T17:44:33.247Z,27.03
2022-08-07T17:46:52.652Z,26.95
2022-08-07T17:49:45.794Z,26.86
2022-08-07T17:52:40.535Z,26.76
2022-08-07T17:55:16.634Z,26.70
2022-08-07T17:58:02.102Z,26.58
2022-08-07T18:00:34.099Z,26.49
2022-08-07T18:03:25.665Z,26.41
2022-08-07T18:06:09.297Z,26.35
2022-08-07T18:09:00.779Z,26.28
2022-08-07T18:12:06.542Z,26.23
2022-08-07T18:14:23.897Z,26.18
2022-08-07T18:16:58.241Z,26.14
2022-08-07T18:21:09.614Z,26.09
2022-08-07T18:22:32.886Z,26.06
2022-08-07T18:25:18.862Z,26.00
2022-08-07T18:28:01.747Z,25.97
2022-08-07T18:31:09.909Z,25.98
2022-08-07T18:33:55.092Z,25.89
2022-08-07T18:36:54.031Z,25.81
2022-08-07T18:40:07.792Z,25.72
2022-08-07T18:42:51.088Z,25.69
2022-08-07T18:45:43.908Z,25.66
2022-08-07T18:50:06.025Z,25.62
2022-08-07T18:51:07.234Z,25.59
2022-08-07T18:53:40.929Z,25.55
2022-08-07T18:57:29.871Z,25.53
2022-08-07T18:59:59.274Z,25.52
2022-08-07T19:02:43.248Z,25.49
2022-08-07T19:05:26.166Z,25.45
2022-08-07T19:08:05.127Z,25.43
2022-08-07T19:10:51.709Z,25.40
2022-08-07T19:13:27.429Z,25.40
2022-08-07T19:17:00.748Z,25.38
2022-08-07T19:19:19.889Z,25.37
2022-08-07T19:22:14.816Z,25.36
2022-08-07T19:24:45.571Z,25.36
2022-08-07T19:29:02.924Z,25.35
2022-08-07T19:31:01.927Z,25.34
2022-08-07T19:32:43.939Z,25.34
2022-08-07T19:35:03.575Z,25.35
2022-08-07T19:37:56.331Z,25.36
2022-08-07T19:40:08.315Z,25.36
2022-08-07T19:42:43.618Z,25.35
2022-08-07T19:46:08.057Z,25.35
2022-08-07T19:47:52.419Z,25.32
2022-08-07T19:50:44.079Z,25.29
2022-08-07T19:52:58.596Z,25.28
2022-08-07T19:55:24.340Z,25.27
2022-08-07T19:58:12.596Z,25.26
2022-08-07T20:00:29.986Z,25.22
2022-08-07T20:03:04.141Z,25.21
2022-08-07T20:06:00.465Z,25.19
2022-08-07T20:08:13.170Z,25.18
2022-08-07T20:10:55.420Z,25.15
2022-08-07T20:13:23.548Z,25.11
2022-08-07T20:15:54.777Z,25.07
2022-08-07T20:18:32.547Z,25.03
2022-08-07T20:20:58.930Z,25.00
2022-08-07T20:23:40.853Z,24.98
2022-08-07T20:26:02.276Z,24.96
2022-08-07T20:28:31.213Z,24.96
2022-08-07T20:31:01.006Z,24.92
2022-08-07T20:33:37.984Z,24.93
2022-08-07T20:36:06.110Z,24.92
2022-08-07T20:38:35.082Z,24.90
2022-08-07T20:41:05.576Z,24.89
2022-08-07T20:43:35.060Z,24.87
2022-08-07T20:46:29.060Z,24.84
2022-08-07T20:48:35.968Z,24.83
2022-08-07T20:51:09.387Z,24.83
2022-08-07T20:54:04.580Z,24.81
2022-08-07T20:56:09.915Z,24.82
2022-08-07T20:58:41.399Z,24.79
2022-08-07T21:01:19.613Z,24.76
2022-08-07T21:04:13.031Z,24.72
2022-08-07T21:06:28.286Z,24.68
2022-08-07T21:09:03.062Z,24.65
2022-08-07T21:11:46.320Z,24.66
2022-08-07T21:14:32.135Z,24.68
2022-08-07T21:16:55.982Z,24.70
2022-08-07T21:19:14.086Z,24.73
2022-08-07T21:21:49.167Z,24.75
2022-08-07T21:24:30.631Z,24.77
2022-08-07T21:27:26.775Z,24.80
2022-08-07T21:30:11.654Z,24.83
2022-08-07T21:32:52.641Z,24.85
2022-08-07T21:35:34.645Z,24.84
2022-08-07T21:38:12.038Z,24.83
2022-08-07T21:40:47.435Z,24.81
2022-08-07T21:43:24.918Z,24.80
2022-08-07T21:46:24.995Z,24.80
2022-08-07T21:49:27.240Z,24.83
2022-08-07T21:52:11.809Z,24.81
2022-08-07T21:55:28.376Z,24.82
2022-08-07T21:58:12.306Z,24.80
2022-08-07T22:00:46.175Z,24.78
2022-08-07T22:03:44.987Z,24.76
2022-08-07T22:06:30.457Z,24.73
2022-08-07T22:08:58.757Z,24.68
2022-08-07T22:11:30.769Z,24.64
2022-08-07T22:14:05.285Z,24.60
2022-08-07T22:16:47.792Z,24.57
2022-08-07T22:19:32.870Z,24.55
2022-08-07T22:22:28.901Z,24.53
2022-08-07T22:24:56.458Z,24.50
2022-08-07T22:28:20.215Z,24.45
2022-08-07T22:30:18.943Z,24.43
2022-08-07T22:33:04.793Z,24.41
2022-08-07T22:35:53.072Z,24.40
2022-08-07T22:38:49.175Z,24.37
2022-08-07T22:42:03.260Z,24.32
2022-08-07T22:44:21.331Z,24.28
2022-08-07T22:47:14.952Z,24.25
2022-08-07T22:50:20.775Z,24.26
2022-08-07T22:53:04.141Z,24.23
2022-08-07T22:56:08.753Z,24.25
2022-08-07T22:59:14.150Z,24.25
2022-08-07T23:02:14.371Z,24.27
2022-08-07T23:06:08.856Z,24.25
2022-08-07T23:08:24.372Z,24.20
2022-08-07T23:11:15.587Z,24.18
2022-08-07T23:14:15.101Z,24.14
2022-08-07T23:16:55.928Z,24.12
2022-08-07T23:20:03.778Z,24.11
2022-08-07T23:24:06.156Z,24.10
2022-08-07T23:26:19.232Z,24.09
2022-08-07T23:29:43.975Z,24.06
2022-08-07T23:34:20.231Z,24.04
2022-08-07T23:35:39.761Z,24.00
2022-08-07T23:38:36.546Z,23.97
2022-08-07T23:41:17.870Z,23.95
2022-08-07T23:44:11.549Z,23.94
2022-08-07T23:47:10.722Z,23.92
2022-08-07T23:50:01.906Z,23.90
2022-08-07T23:52:58.253Z,23.89
2022-08-07T23:55:53.499Z,23.87
2022-08-07T23:58:21.640Z,23.83
